Time;durP1;ratioP1;P1;durP2;ratioP2;P2;SDS_P1;SDS_P2;PMS_P1;PMS_P2;Temp;Humidity;BMP_temperature;BMP_pressure;BME280_temperature;BME280_humidity;BME280_pressure;Samples;Min_cycle;Max_cycle;Signal;HPM_P1;HPM_P2
2023/04/21 00:00:52;;;;;;;32.55;25.23;;;8.80;99.90;;;;;;4993103;28;20113;-86
2023/04/21 00:03:20;;;;;;;34.40;25.08;;;8.20;99.90;;;;;;4976997;28;20242;-86
2023/04/21 00:05:47;;;;;;;36.25;26.77;;;8.90;99.90;;;;;;4993030;28;20047;-88
2023/04/21 00:08:13;;;;;;;33.88;26.00;;;8.80;99.90;;;;;;4960877;28;20054;-86
2023/04/21 00:10:39;;;;;;;30.60;21.30;;;8.90;99.90;;;;;;4992563;28;20088;-86
2023/04/21 00:13:05;;;;;;;32.88;24.88;;;8.80;99.90;;;;;;4976263;28;20074;-86
2023/04/21 00:15:32;;;;;;;30.08;23.23;;;8.80;99.90;;;;;;4976228;28;20100;-85
2023/04/21 00:17:57;;;;;;;32.60;24.38;;;8.80;99.90;;;;;;4976715;28;20137;-85
2023/04/21 00:20:25;;;;;;;28.77;23.52;;;8.80;99.90;;;;;;4976154;28;20125;-84
2023/04/21 00:22:55;;;;;;;31.35;22.60;;;8.80;99.90;;;;;;4976463;28;20050;-85
2023/04/21 00:25:21;;;;;;;31.70;22.42;;;8.70;99.90;;;;;;4976663;28;20137;-85
2023/04/21 00:27:47;;;;;;;30.33;21.52;;;8.70;99.90;;;;;;4976640;28;20065;-85
2023/04/21 00:30:13;;;;;;;28.58;21.38;;;8.70;99.90;;;;;;4960027;28;20054;-85
2023/04/21 00:32:42;;;;;;;27.83;20.13;;;8.70;99.90;;;;;;4992826;28;20057;-86
2023/04/21 00:35:08;;;;;;;26.20;18.52;;;8.70;99.90;;;;;;4960914;28;20042;-84
2023/04/21 00:37:34;;;;;;;27.90;18.48;;;8.80;99.90;;;;;;4975964;28;20049;-85
2023/04/21 00:40:03;;;;;;;26.20;19.58;;;8.90;99.90;;;;;;4980537;28;20046;-85
2023/04/21 00:42:32;;;;;;;27.00;18.33;;;8.80;99.90;;;;;;4980209;28;20053;-85
2023/04/21 00:44:58;;;;;;;25.70;18.95;;;8.90;99.90;;;;;;4996268;28;20058;-85
2023/04/21 00:47:24;;;;;;;26.20;18.83;;;8.80;99.90;;;;;;4964106;28;20050;-85
2023/04/21 00:49:50;;;;;;;25.60;18.20;;;8.80;99.90;;;;;;4979777;28;20038;-85
2023/04/21 00:52:18;;;;;;;24.35;17.88;;;8.80;99.90;;;;;;4979628;28;20085;-86
2023/04/21 00:54:44;;;;;;;25.02;18.33;;;8.90;99.90;;;;;;4979999;28;20062;-86
2023/04/21 00:57:11;;;;;;;26.90;17.27;;;8.80;99.90;;;;;;4996156;28;20097;-84
2023/04/21 00:59:36;;;;;;;23.73;17.75;;;9.00;99.90;;;;;;4995931;28;20046;-84
2023/04/21 01:02:03;;;;;;;24.90;17.52;;;8.80;99.90;;;;;;4963253;28;20134;-85
2023/04/21 01:04:34;;;;;;;24.55;17.33;;;8.90;99.90;;;;;;4995748;28;20505;-85
2023/04/21 01:07:00;;;;;;;26.05;18.20;;;8.90;99.90;;;;;;4995732;28;20058;-86
2023/04/21 01:09:26;;;;;;;21.85;16.35;;;8.80;99.90;;;;;;4995708;28;20046;-85
2023/04/21 01:12:05;;;;;;;24.85;17.10;;;8.80;99.90;;;;;;4979402;28;20393;-85
2023/04/21 01:14:31;;;;;;;24.80;16.63;;;8.80;99.90;;;;;;4995786;28;20065;-85
2023/04/21 01:16:57;;;;;;;21.58;16.05;;;8.90;99.90;;;;;;4979650;28;20047;-86
2023/04/21 01:19:25;;;;;;;22.90;16.65;;;8.90;99.90;;;;;;4995782;28;20442;-85
2023/04/21 01:21:57;;;;;;;18.58;11.50;;;8.90;99.90;;;;;;4979308;28;20139;-86
2023/04/21 01:24:42;;;;;;;23.10;15.93;;;8.90;99.90;;;;;;4995700;28;20046;-86
2023/04/21 01:27:19;;;;;;;23.20;14.73;;;9.00;99.90;;;;;;4979401;28;20379;-84
2023/04/21 01:29:47;;;;;;;19.05;13.85;;;8.90;99.90;;;;;;4995249;28;20046;-85
2023/04/21 01:32:16;;;;;;;23.75;15.35;;;9.00;99.90;;;;;;4995658;28;20061;-85
2023/04/21 01:34:42;;;;;;;20.98;15.27;;;8.90;99.90;;;;;;4979186;28;20109;-86
2023/04/21 01:37:12;;;;;;;19.95;14.48;;;8.90;99.90;;;;;;4979219;28;20085;-87
2023/04/21 01:39:43;;;;;;;22.02;14.98;;;9.00;99.90;;;;;;4963608;28;20449;-85
2023/04/21 01:42:10;;;;;;;22.60;15.82;;;8.90;99.90;;;;;;4979084;28;20050;-87
2023/04/21 01:44:36;;;;;;;21.10;15.93;;;8.90;99.90;;;;;;4979078;28;20046;-87
2023/04/21 01:47:03;;;;;;;22.75;15.68;;;8.90;99.90;;;;;;4979019;28;20050;-88
2023/04/21 01:49:29;;;;;;;22.33;15.30;;;8.90;99.90;;;;;;4994742;28;20042;-86
2023/04/21 01:51:54;;;;;;;19.95;14.80;;;8.80;99.90;;;;;;4962993;28;20056;-87
2023/04/21 01:54:20;;;;;;;22.95;15.25;;;8.80;99.90;;;;;;4978222;28;20050;-87
2023/04/21 01:56:46;;;;;;;21.05;14.88;;;8.90;99.90;;;;;;4978739;28;20046;-87
2023/04/21 01:59:12;;;;;;;23.73;15.82;;;8.80;99.90;;;;;;4978449;28;20050;-87
2023/04/21 02:01:37;;;;;;;22.67;15.27;;;8.70;99.90;;;;;;4994939;28;20402;-88
2023/04/21 02:04:04;;;;;;;23.45;14.75;;;8.70;99.90;;;;;;4962683;28;20501;-86
2023/04/21 02:06:30;;;;;;;21.52;14.90;;;8.70;99.90;;;;;;4978701;28;20082;-86
2023/04/21 02:08:57;;;;;;;20.95;15.70;;;8.60;99.90;;;;;;4994435;28;20081;-86
2023/04/21 02:11:24;;;;;;;22.02;15.27;;;8.60;99.90;;;;;;4978771;28;20047;-87
2023/04/21 02:13:51;;;;;;;20.75;14.32;;;8.70;99.90;;;;;;4962503;28;20065;-86
2023/04/21 02:16:19;;;;;;;21.27;15.32;;;8.70;99.90;;;;;;4994659;28;20100;-87
2023/04/21 02:18:47;;;;;;;21.65;15.05;;;8.60;99.90;;;;;;4978783;28;20438;-85
2023/04/21 02:21:14;;;;;;;22.10;15.98;;;8.70;99.90;;;;;;4994641;28;20061;-87
2023/04/21 02:23:40;;;;;;;20.80;15.27;;;8.70;99.90;;;;;;4962320;28;20050;-86
2023/04/21 02:26:06;;;;;;;21.95;14.80;;;8.70;99.90;;;;;;4994571;28;20085;-85
2023/04/21 02:28:32;;;;;;;23.25;15.43;;;8.60;99.90;;;;;;4977768;28;20525;-85
2023/04/21 02:30:58;;;;;;;20.83;14.55;;;8.70;99.90;;;;;;4994376;28;20069;-86
2023/04/21 02:33:23;;;;;;;21.50;15.48;;;8.60;99.90;;;;;;4994419;28;20442;-86
2023/04/21 02:35:49;;;;;;;20.80;15.85;;;8.60;99.90;;;;;;4978260;28;20042;-86
2023/04/21 02:38:15;;;;;;;21.58;15.45;;;8.60;99.90;;;;;;4977810;28;20046;-87
2023/04/21 02:40:41;;;;;;;23.98;15.90;;;8.50;99.90;;;;;;4962048;28;20137;-86
2023/04/21 02:43:07;;;;;;;21.23;15.07;;;8.50;99.90;;;;;;4961643;28;20053;-85
2023/04/21 02:45:33;;;;;;;20.83;13.35;;;8.50;99.90;;;;;;4993776;28;20038;-85
2023/04/21 02:47:59;;;;;;;21.42;14.82;;;8.50;99.90;;;;;;4994023;28;20053;-85
2023/04/21 02:50:25;;;;;;;21.92;14.70;;;8.50;99.90;;;;;;4977633;28;20054;-86
2023/04/21 02:52:50;;;;;;;21.08;14.65;;;8.50;99.90;;;;;;4977251;28;20057;-86
2023/04/21 02:55:16;;;;;;;21.15;15.05;;;8.50;99.90;;;;;;4993865;28;20054;-86
2023/04/21 02:57:42;;;;;;;22.75;14.50;;;8.60;99.90;;;;;;4977495;28;20050;-86
2023/04/21 03:00:11;;;;;;;22.95;14.38;;;8.60;99.90;;;;;;4993429;28;20108;-85
2023/04/21 03:02:37;;;;;;;21.70;15.38;;;8.50;99.90;;;;;;4993377;28;20490;-85
2023/04/21 03:05:03;;;;;;;21.63;14.65;;;8.60;99.90;;;;;;4961462;28;20053;-85
2023/04/21 03:07:29;;;;;;;20.90;14.93;;;8.60;99.90;;;;;;4961599;28;20050;-85
2023/04/21 03:09:54;;;;;;;19.92;14.07;;;8.60;99.90;;;;;;4977358;28;20371;-85
2023/04/21 03:12:20;;;;;;;20.67;15.07;;;8.60;99.90;;;;;;4977278;28;20084;-85
2023/04/21 03:14:46;;;;;;;19.27;14.40;;;8.60;99.90;;;;;;4961404;28;20042;-85
2023/04/21 03:17:12;;;;;;;22.48;15.02;;;8.60;99.90;;;;;;4960940;28;20057;-84
2023/04/21 03:19:38;;;;;;;22.33;14.93;;;8.60;99.90;;;;;;4993495;28;20141;-85
2023/04/21 03:22:04;;;;;;;20.58;14.63;;;8.50;99.90;;;;;;4977353;28;20068;-84
2023/04/21 03:24:29;;;;;;;19.95;14.10;;;8.50;99.90;;;;;;4977362;28;20053;-85
2023/04/21 03:26:55;;;;;;;21.40;14.45;;;8.50;99.90;;;;;;4944939;28;20482;-86
2023/04/21 03:29:22;;;;;;;19.90;13.13;;;8.60;99.90;;;;;;4993279;28;20050;-85
2023/04/21 03:31:48;;;;;;;21.90;15.63;;;8.60;99.90;;;;;;4993438;28;20109;-86
2023/04/21 03:34:13;;;;;;;20.13;14.75;;;8.50;99.90;;;;;;4992984;28;20465;-84
2023/04/21 03:36:39;;;;;;;19.60;13.93;;;8.50;99.90;;;;;;4977193;28;20382;-85
2023/04/21 03:39:05;;;;;;;18.17;13.48;;;8.50;99.90;;;;;;4977161;28;20181;-83
2023/04/21 03:41:35;;;;;;;23.42;14.80;;;8.60;99.90;;;;;;4977103;28;20050;-85
2023/04/21 03:44:00;;;;;;;22.48;15.65;;;8.50;99.90;;;;;;4977123;28;20054;-85
2023/04/21 03:46:26;;;;;;;24.40;15.10;;;8.50;99.90;;;;;;4976980;28;20046;-85
2023/04/21 03:48:55;;;;;;;19.77;14.32;;;8.50;99.90;;;;;;4976831;28;20053;-87
2023/04/21 03:51:21;;;;;;;18.13;12.00;;;8.60;99.90;;;;;;4961705;28;20082;-85
2023/04/21 03:53:46;;;;;;;18.92;14.15;;;8.50;99.90;;;;;;4976579;28;20141;-84
2023/04/21 03:56:15;;;;;;;20.70;12.52;;;8.50;99.90;;;;;;4960747;28;20077;-84
2023/04/21 03:58:41;;;;;;;19.10;13.57;;;8.50;99.90;;;;;;4960753;28;20131;-86
2023/04/21 04:01:06;;;;;;;21.50;14.95;;;8.50;99.90;;;;;;4976989;28;20046;-85
2023/04/21 04:03:33;;;;;;;19.95;14.38;;;8.40;99.90;;;;;;4960808;28;20050;-86
2023/04/21 04:05:59;;;;;;;19.52;13.60;;;8.30;99.90;;;;;;4992756;28;20052;-86
2023/04/21 04:08:24;;;;;;;23.77;15.32;;;8.30;99.90;;;;;;4976614;28;20054;-86
2023/04/21 04:10:50;;;;;;;20.27;14.52;;;8.30;99.90;;;;;;4976597;28;20462;-86
2023/04/21 04:13:16;;;;;;;21.48;15.30;;;8.20;99.90;;;;;;4996127;28;20512;-85
2023/04/21 04:15:42;;;;;;;22.13;15.63;;;8.20;99.90;;;;;;4980717;28;20089;-86
2023/04/21 04:18:07;;;;;;;22.02;15.45;;;8.10;99.90;;;;;;4980729;28;20124;-86
2023/04/21 04:20:34;;;;;;;22.08;14.95;;;8.10;99.90;;;;;;4996759;28;20458;-86
2023/04/21 04:22:59;;;;;;;20.33;15.15;;;8.00;99.90;;;;;;4964660;28;20038;-86
2023/04/21 04:25:26;;;;;;;20.40;14.95;;;8.00;99.90;;;;;;4980629;28;20046;-86
2023/04/21 04:27:52;;;;;;;21.23;15.45;;;8.00;99.90;;;;;;4964279;28;20058;-87
2023/04/21 04:30:18;;;;;;;20.15;14.98;;;8.00;99.90;;;;;;4996325;28;20042;-86
2023/04/21 04:32:44;;;;;;;21.27;15.70;;;7.90;99.90;;;;;;4948699;28;20054;-86
2023/04/21 04:35:11;;;;;;;20.88;14.68;;;7.90;99.90;;;;;;4980397;28;20050;-85
2023/04/21 04:37:38;;;;;;;21.63;14.15;;;7.90;99.90;;;;;;4980412;28;20042;-86
2023/04/21 04:40:05;;;;;;;23.58;15.13;;;8.00;99.90;;;;;;4980306;28;20046;-87
2023/04/21 04:42:35;;;;;;;22.42;15.20;;;7.90;99.90;;;;;;4980241;28;20129;-86
2023/04/21 04:45:02;;;;;;;19.10;13.60;;;8.00;99.90;;;;;;4996152;28;20054;-87
2023/04/21 04:47:28;;;;;;;20.75;13.68;;;8.00;99.90;;;;;;4980241;28;20050;-87
2023/04/21 04:49:54;;;;;;;18.52;13.95;;;8.20;99.90;;;;;;4963769;28;20057;-87
2023/04/21 04:52:20;;;;;;;26.65;14.68;;;8.20;99.90;;;;;;4979797;28;20108;-87
2023/04/21 04:54:46;;;;;;;20.50;14.55;;;8.20;99.90;;;;;;4964095;28;20054;-88
2023/04/21 04:57:11;;;;;;;21.25;14.88;;;8.10;99.90;;;;;;4979635;28;20057;-87
2023/04/21 04:59:37;;;;;;;20.33;14.55;;;8.20;99.90;;;;;;4960537;28;20057;-87
2023/04/21 05:02:03;;;;;;;21.20;14.15;;;8.20;99.90;;;;;;4960433;28;20051;-88
2023/04/21 05:04:29;;;;;;;19.38;14.27;;;8.30;99.90;;;;;;4944349;28;20074;-88
2023/04/21 05:06:55;;;;;;;19.05;13.63;;;8.30;99.90;;;;;;4960500;28;20053;-87
2023/04/21 05:09:20;;;;;;;19.15;12.48;;;8.40;99.90;;;;;;4976254;28;20050;-89
2023/04/21 05:11:46;;;;;;;20.38;14.02;;;8.50;99.90;;;;;;4992707;28;20046;-88
2023/04/21 05:14:12;;;;;;;18.98;13.60;;;8.60;99.90;;;;;;4960334;28;20042;-87
2023/04/21 05:16:37;;;;;;;18.83;14.00;;;8.60;99.90;;;;;;4944540;28;20053;-88
2023/04/21 05:19:03;;;;;;;17.27;12.50;;;8.70;99.90;;;;;;4960336;28;20055;-87
2023/04/21 05:21:30;;;;;;;17.92;13.00;;;8.80;99.90;;;;;;4976280;28;20047;-88
2023/04/21 05:23:57;;;;;;;17.80;12.98;;;8.80;99.90;;;;;;4959651;28;20047;-89
2023/04/21 05:26:27;;;;;;;19.90;12.68;;;8.90;99.90;;;;;;4960234;28;20054;-88
2023/04/21 05:28:57;;;;;;;16.08;12.65;;;9.00;99.90;;;;;;5002018;28;20132;-88
2023/04/21 05:31:23;;;;;;;17.17;12.65;;;9.00;99.90;;;;;;4995806;28;20482;-89
2023/04/21 05:33:52;;;;;;;19.17;12.60;;;9.00;99.90;;;;;;4964312;28;20050;-90
2023/04/21 05:36:23;;;;;;;20.55;12.88;;;9.10;99.90;;;;;;4979376;28;20473;-89
2023/04/21 05:38:49;;;;;;;17.08;12.52;;;9.20;99.90;;;;;;4979277;28;20129;-89
2023/04/21 05:41:15;;;;;;;16.88;11.63;;;9.30;99.90;;;;;;4979188;28;20173;-88
2023/04/21 05:43:41;;;;;;;16.50;12.23;;;9.30;99.90;;;;;;4995429;28;20050;-90
2023/04/21 05:46:10;;;;;;;18.02;12.32;;;9.40;99.90;;;;;;4995719;28;20046;-90
2023/04/21 05:48:36;;;;;;;17.95;11.90;;;9.50;99.90;;;;;;4979829;28;20042;-89
2023/04/21 05:51:28;;;;;;;17.63;11.50;;;9.70;99.90;;;;;;4979630;28;20065;-89
2023/04/21 05:53:54;;;;;;;19.15;11.23;;;9.80;99.90;;;;;;4976370;28;20053;-90
2023/04/21 05:56:22;;;;;;;18.60;11.65;;;10.00;99.90;;;;;;5000749;28;20109;-91
2023/04/21 05:58:48;;;;;;;18.33;11.23;;;10.10;99.90;;;;;;4969472;28;20110;-90
2023/04/21 06:01:17;;;;;;;17.10;11.15;;;10.30;99.90;;;;;;4985564;28;20532;-89
2023/04/21 06:03:43;;;;;;;15.20;10.88;;;10.50;99.90;;;;;;4988062;28;20058;-90
2023/04/21 06:06:27;;;;;;;16.77;10.82;;;10.70;99.90;;;;;;4993978;28;20034;-91
2023/04/21 06:08:58;;;;;;;17.90;10.10;;;10.50;99.90;;;;;;4983996;28;20055;-90
2023/04/21 06:11:28;;;;;;;15.90;10.60;;;11.00;99.90;;;;;;5164980;23;20084;-90
2023/04/21 06:13:58;;;;;;;17.58;10.63;;;10.30;99.90;;;;;;5018844;28;20115;-90
2023/04/21 06:16:26;;;;;;;14.75;10.40;;;10.90;99.90;;;;;;5038325;28;20038;-90
2023/04/21 06:19:08;;;;;;;17.50;10.38;;;10.90;99.90;;;;;;5460906;22;20020;-90
2023/04/21 06:21:34;;;;;;;16.33;10.40;;;11.10;99.90;;;;;;4984805;28;20050;-89
2023/04/21 06:24:00;;;;;;;14.13;8.70;;;11.30;99.90;;;;;;4967515;28;20049;-89
2023/04/21 06:26:26;;;;;;;14.95;9.52;;;11.40;99.90;;;;;;4966552;28;20049;-89
2023/04/21 06:28:52;;;;;;;15.60;9.85;;;11.50;99.90;;;;;;5422737;23;20061;-89
2023/04/21 06:34:10;;;;;;;16.73;10.27;;;11.30;99.90;;;;;;5281064;22;20060;-91
2023/04/21 06:36:36;;;;;;;14.70;9.13;;;10.40;99.90;;;;;;5042310;28;20076;-89
2023/04/21 06:39:03;;;;;;;15.65;9.50;;;10.60;99.90;;;;;;5060031;28;20079;-90
2023/04/21 06:41:42;;;;;;;15.88;9.52;;;10.40;99.90;;;;;;5091177;28;20139;-89
2023/04/21 06:44:20;;;;;;;15.75;8.93;;;11.80;99.90;;;;;;5063198;28;20032;-90
2023/04/21 06:46:49;;;;;;;13.88;9.32;;;11.30;99.90;;;;;;5045226;28;20522;-90
2023/04/21 06:49:14;;;;;;;15.63;9.93;;;11.90;99.90;;;;;;5037163;28;20076;-89
2023/04/21 06:51:41;;;;;;;15.75;8.93;;;12.40;99.90;;;;;;5030029;28;20135;-88
2023/04/21 06:54:09;;;;;;;14.68;9.32;;;12.80;99.90;;;;;;5045947;28;20040;-89
2023/04/21 06:56:35;;;;;;;15.13;9.23;;;12.90;99.90;;;;;;5033328;28;20081;-88
2023/04/21 06:59:01;;;;;;;14.73;8.65;;;12.70;99.90;;;;;;5031345;28;20053;-89
2023/04/21 07:01:27;;;;;;;13.98;9.27;;;12.60;99.90;;;;;;5014330;28;20048;-90
2023/04/21 07:03:53;;;;;;;16.48;9.68;;;12.50;99.90;;;;;;5031932;28;20040;-89
2023/04/21 07:06:18;;;;;;;15.90;9.32;;;12.50;99.90;;;;;;5045545;28;20055;-89
2023/04/21 07:08:44;;;;;;;13.23;9.10;;;12.50;99.90;;;;;;5036504;28;20080;-89
2023/04/21 07:11:13;;;;;;;14.18;9.20;;;12.00;99.90;;;;;;5049071;28;20041;-88
2023/04/21 07:13:45;;;;;;;15.30;9.45;;;12.50;99.90;;;;;;5028006;28;20196;-90
2023/04/21 07:16:10;;;;;;;14.82;9.13;;;12.70;99.90;;;;;;5017628;28;20041;-90
2023/04/21 07:18:39;;;;;;;17.17;8.85;;;12.60;99.90;;;;;;5010179;28;20055;-91
2023/04/21 07:21:08;;;;;;;15.43;9.15;;;12.20;99.90;;;;;;5037770;28;20096;-90
2023/04/21 07:23:34;;;;;;;14.23;8.48;;;12.80;99.90;;;;;;5038991;28;20045;-90
2023/04/21 07:26:00;;;;;;;15.65;9.13;;;12.60;99.90;;;;;;5032214;28;20163;-89
2023/04/21 07:28:26;;;;;;;14.63;8.68;;;12.70;99.90;;;;;;5021165;28;20104;-90
2023/04/21 07:30:55;;;;;;;12.35;8.60;;;12.80;99.90;;;;;;5074051;28;20057;-90
2023/04/21 07:33:27;;;;;;;17.50;9.55;;;12.10;99.90;;;;;;5070899;28;20056;-89
2023/04/21 07:35:59;;;;;;;15.73;8.82;;;12.70;99.90;;;;;;5023097;28;20091;-89
2023/04/21 07:38:25;;;;;;;14.48;8.63;;;12.00;99.90;;;;;;5066333;28;20460;-89
2023/04/21 07:40:51;;;;;;;17.42;9.07;;;12.70;99.90;;;;;;5029067;28;20064;-89
2023/04/21 08:39:53;;;;;;;15.15;8.55;;;14.30;99.90;;;;;;5034410;28;20060;-88
2023/04/21 08:42:19;;;;;;;15.52;8.80;;;14.40;99.90;;;;;;5052966;28;20049;-88
2023/04/21 08:44:45;;;;;;;14.00;8.75;;;14.60;99.90;;;;;;5036874;28;20053;-87
2023/04/21 08:47:12;;;;;;;12.32;8.18;;;14.60;99.90;;;;;;5070848;28;20087;-88
2023/04/21 08:49:41;;;;;;;14.90;8.73;;;14.70;99.90;;;;;;5035892;28;20045;-88
2023/04/21 08:52:07;;;;;;;16.13;9.07;;;14.70;99.90;;;;;;5035792;28;20504;-87
2023/04/21 08:54:37;;;;;;;13.07;8.95;;;14.80;99.90;;;;;;5069148;28;20045;-88
2023/04/21 08:57:03;;;;;;;14.98;9.25;;;14.90;99.90;;;;;;5038603;28;20049;-88
2023/04/21 08:59:29;;;;;;;14.02;8.48;;;14.90;99.90;;;;;;5039544;28;20140;-89
2023/04/21 09:02:16;;;;;;;15.57;8.85;;;15.00;99.90;;;;;;5059543;28;20052;-87
2023/04/21 09:04:45;;;;;;;14.35;8.65;;;15.20;99.90;;;;;;5059667;28;20058;-88
2023/04/21 09:07:28;;;;;;;14.23;8.85;;;15.30;99.90;;;;;;5062334;28;20048;-87
2023/04/21 09:09:55;;;;;;;16.35;9.05;;;15.60;99.90;;;;;;5059940;28;20056;-87
2023/04/21 09:12:23;;;;;;;15.40;7.78;;;16.00;99.90;;;;;;5042871;28;20391;-86
2023/04/21 09:14:50;;;;;;;12.52;8.60;;;16.10;99.90;;;;;;5059339;28;20056;-87
2023/04/21 09:17:21;;;;;;;15.05;8.93;;;16.10;99.90;;;;;;5059088;28;20130;-87
2023/04/21 09:19:47;;;;;;;16.55;8.90;;;16.20;99.90;;;;;;5058218;28;20185;-87
2023/04/21 09:22:17;;;;;;;16.70;8.90;;;16.20;99.90;;;;;;5058473;28;20078;-87
2023/04/21 09:24:55;;;;;;;14.20;9.38;;;16.20;99.90;;;;;;5041508;28;20037;-86
2023/04/21 09:27:22;;;;;;;13.30;8.88;;;16.40;99.90;;;;;;5058519;28;20110;-87
2023/04/21 09:29:48;;;;;;;15.13;8.18;;;16.50;99.90;;;;;;5058081;28;20547;-86
2023/04/21 09:32:18;;;;;;;13.50;9.07;;;16.50;99.90;;;;;;5058527;28;20507;-85
2023/04/21 09:34:44;;;;;;;13.45;6.82;;;16.60;99.90;;;;;;5041736;28;20091;-86
2023/04/21 09:37:12;;;;;;;15.88;8.77;;;16.70;99.90;;;;;;5050240;23;20064;-87
2023/04/21 09:39:38;;;;;;;15.20;7.93;;;16.80;99.90;;;;;;5038100;28;20123;-86
2023/04/21 09:42:04;;;;;;;13.63;8.57;;;16.90;99.90;;;;;;5021442;28;20045;-86
2023/04/21 09:44:30;;;;;;;15.50;9.15;;;17.10;99.90;;;;;;5038117;28;20398;-87
2023/04/21 09:47:03;;;;;;;14.65;9.10;;;17.30;98.90;;;;;;5021881;28;20439;-86
2023/04/21 09:49:33;;;;;;;14.57;7.97;;;17.20;99.90;;;;;;5038422;28;20045;-86
2023/04/21 09:52:00;;;;;;;12.90;8.05;;;17.20;97.90;;;;;;5038531;28;20080;-84
2023/04/21 09:54:30;;;;;;;15.60;8.38;;;17.00;98.40;;;;;;5037848;28;20040;-85
2023/04/21 09:57:02;;;;;;;15.52;9.13;;;16.90;99.30;;;;;;5038247;28;20048;-86
2023/04/21 09:59:36;;;;;;;16.52;8.60;;;16.80;99.90;;;;;;5022026;28;20049;-87
2023/04/21 10:02:06;;;;;;;15.55;8.18;;;16.80;99.00;;;;;;5021213;28;20048;-86
2023/04/21 10:04:34;;;;;;;14.85;8.45;;;16.80;98.70;;;;;;5021135;28;20127;-87
2023/04/21 10:07:01;;;;;;;16.50;9.35;;;16.80;98.30;;;;;;5021507;28;20047;-85
2023/04/21 10:09:37;;;;;;;14.32;8.98;;;16.80;98.60;;;;;;5021206;28;20048;-88
2023/04/21 10:12:04;;;;;;;12.80;8.80;;;16.90;98.90;;;;;;5038331;28;20053;-86
2023/04/21 10:14:30;;;;;;;14.55;9.27;;;17.00;98.80;;;;;;5021219;28;20087;-87
2023/04/21 10:17:02;;;;;;;14.80;8.75;;;17.10;99.90;;;;;;5021452;28;20045;-86
2023/04/21 10:19:28;;;;;;;14.32;8.85;;;17.60;99.40;;;;;;5021129;28;20049;-85
2023/04/21 10:21:57;;;;;;;15.68;8.90;;;18.00;96.70;;;;;;5020911;28;20056;-87
2023/04/21 10:24:29;;;;;;;13.82;8.77;;;18.20;95.80;;;;;;5037528;28;20052;-86
2023/04/21 10:26:58;;;;;;;14.25;8.88;;;18.40;95.20;;;;;;5037911;28;20396;-86
2023/04/21 10:29:29;;;;;;;14.43;8.90;;;18.50;94.40;;;;;;5004354;28;20044;-87
2023/04/21 10:31:55;;;;;;;14.07;8.93;;;18.40;95.00;;;;;;5037482;28;20500;-88
2023/04/21 10:34:28;;;;;;;14.05;8.43;;;18.70;95.70;;;;;;5021226;28;20106;-88
2023/04/21 10:36:54;;;;;;;12.07;7.43;;;18.90;92.80;;;;;;5037599;28;20140;-88
2023/04/21 10:39:30;;;;;;;14.70;7.75;;;19.20;93.30;;;;;;5021410;28;20142;-88
2023/04/21 10:41:57;;;;;;;14.80;7.03;;;19.40;92.10;;;;;;5038781;28;20048;-86
2023/04/21 10:44:23;;;;;;;14.20;6.28;;;19.40;90.20;;;;;;5038619;28;20036;-89
2023/04/21 10:46:51;;;;;;;13.65;7.78;;;19.40;86.50;;;;;;5038070;28;20044;-87
2023/04/21 10:49:30;;;;;;;14.02;7.60;;;19.30;89.70;;;;;;5037034;28;20048;-88
2023/04/21 10:51:59;;;;;;;15.90;6.03;;;19.30;85.70;;;;;;5038449;28;20095;-88
2023/04/21 10:54:27;;;;;;;13.65;7.85;;;19.30;85.20;;;;;;5041804;28;20099;-88
2023/04/21 10:56:57;;;;;;;11.38;5.75;;;19.10;86.80;;;;;;5038648;28;20057;-88
2023/04/21 10:59:25;;;;;;;10.35;6.20;;;18.90;86.40;;;;;;5021640;28;20128;-87
2023/04/21 11:01:51;;;;;;;11.30;6.80;;;18.70;86.10;;;;;;5022159;28;20110;-88
2023/04/21 11:04:19;;;;;;;14.85;6.43;;;18.60;89.00;;;;;;5021018;28;20057;-87
2023/04/21 11:07:06;;;;;;;11.60;7.07;;;18.80;88.80;;;;;;5021713;28;20125;-86
2023/04/21 11:09:33;;;;;;;10.60;4.30;;;19.10;85.80;;;;;;5038755;28;20407;-87
2023/04/21 11:12:03;;;;;;;12.63;6.50;;;19.20;83.70;;;;;;5037504;28;20040;-87
2023/04/21 11:14:30;;;;;;;8.63;3.97;;;19.40;83.40;;;;;;5037375;28;20076;-88
2023/04/21 11:16:56;;;;;;;11.90;4.60;;;19.70;81.50;;;;;;4997284;28;20060;-85
2023/04/21 11:19:23;;;;;;;9.30;4.65;;;19.80;82.10;;;;;;5038736;28;20049;-87
2023/04/21 11:21:49;;;;;;;13.80;5.95;;;20.00;80.40;;;;;;5039313;28;20056;-88
2023/04/21 11:24:15;;;;;;;10.50;5.72;;;20.10;80.70;;;;;;5021289;28;20388;-87
2023/04/21 11:26:41;;;;;;;9.38;4.22;;;20.20;77.20;;;;;;5038533;28;20120;-89
2023/04/21 11:29:11;;;;;;;12.18;5.20;;;20.30;73.40;;;;;;5005441;28;20455;-88
2023/04/21 11:31:39;;;;;;;13.27;5.63;;;20.10;75.00;;;;;;5038954;28;20052;-88
2023/04/21 11:34:05;;;;;;;11.38;5.47;;;20.20;76.70;;;;;;5053863;28;20049;-87
2023/04/21 11:36:35;;;;;;;12.27;5.45;;;20.20;76.70;;;;;;5036456;28;20052;-86
2023/04/21 11:39:09;;;;;;;11.38;5.22;;;20.50;73.30;;;;;;5036299;28;20053;-86
2023/04/21 11:41:43;;;;;;;10.60;4.63;;;20.50;70.50;;;;;;5036253;28;20103;-85
2023/04/21 11:44:10;;;;;;;9.23;4.40;;;20.20;70.40;;;;;;5019670;28;20052;-88
2023/04/21 11:46:36;;;;;;;11.48;4.82;;;20.00;71.50;;;;;;5036529;28;20131;-88
2023/04/21 11:49:05;;;;;;;12.35;5.13;;;20.00;74.20;;;;;;5035290;28;20037;-86
2023/04/21 11:51:33;;;;;;;11.82;4.43;;;20.10;71.40;;;;;;5035509;28;20053;-87
2023/04/21 11:53:59;;;;;;;12.80;4.40;;;20.50;67.60;;;;;;5036129;28;20137;-85
2023/04/21 11:56:25;;;;;;;12.40;4.55;;;20.70;65.90;;;;;;5019418;28;20081;-86
2023/04/21 11:58:51;;;;;;;9.82;3.35;;;21.00;66.20;;;;;;5036267;28;20095;-85
2023/04/21 12:01:18;;;;;;;12.40;4.10;;;21.00;63.70;;;;;;5036279;28;20056;-86
2023/04/21 12:03:55;;;;;;;8.48;3.85;;;21.00;65.50;;;;;;5035739;28;20190;-85
2023/04/21 12:06:28;;;;;;;8.63;3.65;;;20.90;62.40;;;;;;5019062;28;20045;-87
2023/04/21 12:08:56;;;;;;;8.43;3.60;;;20.90;62.10;;;;;;5035926;28;20064;-85
2023/04/21 12:11:24;;;;;;;7.07;3.33;;;20.90;60.30;;;;;;5018835;28;20060;-85
2023/04/21 12:13:49;;;;;;;6.43;2.28;;;20.70;59.00;;;;;;5036074;28;20053;-86
2023/04/21 12:16:15;;;;;;;11.02;3.95;;;20.50;59.20;;;;;;5036102;28;20045;-85
2023/04/21 12:18:42;;;;;;;9.43;4.50;;;20.20;59.60;;;;;;5018588;28;20052;-87
2023/04/21 12:21:07;;;;;;;8.32;3.70;;;19.90;59.70;;;;;;5036215;28;20055;-84
2023/04/21 12:23:33;;;;;;;8.80;4.15;;;19.80;59.20;;;;;;5019672;28;20049;-85
2023/04/21 12:26:00;;;;;;;10.88;3.67;;;19.70;60.40;;;;;;5019503;28;20056;-84
2023/04/21 12:28:28;;;;;;;8.75;4.07;;;19.60;61.10;;;;;;5036128;28;20060;-86
2023/04/21 12:30:54;;;;;;;9.48;3.88;;;19.60;60.70;;;;;;5035654;28;20128;-86
2023/04/21 12:33:23;;;;;;;7.80;3.00;;;20.10;62.30;;;;;;5035996;28;20048;-87
2023/04/21 12:35:49;;;;;;;9.20;3.55;;;20.40;59.60;;;;;;5023046;28;20455;-86
2023/04/21 12:38:15;;;;;;;11.57;3.97;;;20.40;58.90;;;;;;5055586;28;20056;-87
2023/04/21 12:40:44;;;;;;;8.70;3.50;;;20.30;57.70;;;;;;5040114;28;20049;-86
2023/04/21 12:43:10;;;;;;;10.38;3.30;;;20.20;57.60;;;;;;5023676;28;20113;-86
2023/04/21 12:45:35;;;;;;;8.40;2.92;;;20.10;58.70;;;;;;5023086;28;20405;-84
2023/04/21 12:48:03;;;;;;;7.20;3.17;;;20.10;59.10;;;;;;5039517;28;20049;-87
2023/04/21 12:50:29;;;;;;;9.90;4.00;;;20.30;59.10;;;;;;5023146;28;20401;-85
2023/04/21 12:52:55;;;;;;;6.15;2.50;;;20.70;58.10;;;;;;5039388;28;20139;-87
2023/04/21 12:55:21;;;;;;;7.25;2.90;;;20.80;56.50;;;;;;5022972;28;20408;-86
2023/04/21 12:57:49;;;;;;;10.63;3.42;;;21.20;56.70;;;;;;5040380;28;20106;-88
2023/04/21 13:00:15;;;;;;;9.98;3.17;;;21.10;57.10;;;;;;5024812;28;20456;-87
2023/04/21 13:02:41;;;;;;;5.65;2.05;;;21.00;56.90;;;;;;5040745;28;20129;-87
2023/04/21 13:05:08;;;;;;;6.10;1.95;;;21.10;55.70;;;;;;5040474;28;20094;-88
2023/04/21 13:07:35;;;;;;;8.35;3.75;;;20.80;55.40;;;;;;5023502;28;20045;-86
2023/04/21 13:10:05;;;;;;;8.68;3.60;;;20.50;56.00;;;;;;5039225;28;20497;-86
2023/04/21 13:12:34;;;;;;;9.60;3.03;;;20.30;56.20;;;;;;5039391;28;20052;-87
2023/04/21 13:15:00;;;;;;;9.55;3.72;;;20.40;55.70;;;;;;5023280;28;20124;-87
2023/04/21 13:17:26;;;;;;;8.75;3.38;;;20.60;55.70;;;;;;5024544;28;20096;-88
2023/04/21 13:19:52;;;;;;;7.78;2.88;;;20.60;55.50;;;;;;5041616;28;20056;-86
2023/04/21 13:22:17;;;;;;;6.55;3.13;;;20.50;54.70;;;;;;5024100;28;20045;-87
2023/04/21 13:24:43;;;;;;;11.25;3.35;;;20.30;54.90;;;;;;5058210;28;20049;-88
2023/04/21 13:27:09;;;;;;;7.63;3.10;;;20.20;55.20;;;;;;5024821;28;20045;-85
2023/04/21 13:29:35;;;;;;;10.60;3.58;;;20.20;54.70;;;;;;5008918;28;20080;-87
2023/04/21 13:32:06;;;;;;;8.88;3.15;;;20.10;55.40;;;;;;5008861;28;20045;-86
2023/04/21 13:34:33;;;;;;;7.30;2.28;;;20.10;55.60;;;;;;5023034;28;20059;-87
2023/04/21 13:37:00;;;;;;;16.30;2.88;;;20.40;53.80;;;;;;5023089;28;20053;-86
2023/04/21 13:39:26;;;;;;;6.30;2.38;;;20.40;53.50;;;;;;5056595;28;20111;-86